createdAt,value
2023-01-02T00:03:21.354Z,10.30
2023-01-02T00:06:43.017Z,10.40
2023-01-02T00:10:04.985Z,10.50
2023-01-02T00:13:26.557Z,10.50
2023-01-02T00:16:49.458Z,10.50
2023-01-02T00:20:11.263Z,10.40
2023-01-02T00:23:33.409Z,10.40
2023-01-02T00:26:54.976Z,10.30
2023-01-02T00:30:16.735Z,10.30
2023-01-02T00:33:39.641Z,10.30
2023-01-02T00:37:01.215Z,10.20
2023-01-02T00:40:22.750Z,10.20
2023-01-02T00:43:44.310Z,10.20
2023-01-02T00:47:05.953Z,10.10
2023-01-02T00:50:28.877Z,10.00
2023-01-02T00:53:50.453Z,9.90
2023-01-02T00:57:11.999Z,9.70
2023-01-02T01:00:33.618Z,9.60
2023-01-02T01:03:55.196Z,9.40
2023-01-02T01:07:18.175Z,9.30
2023-01-02T01:10:39.750Z,9.20
2023-01-02T01:14:01.293Z,9.10
2023-01-02T01:17:22.913Z,9.00
2023-01-02T01:20:44.467Z,8.90
2023-01-02T01:24:07.642Z,8.90
2023-01-02T01:27:29.177Z,8.80
2023-01-02T01:30:50.728Z,8.80
2023-01-02T01:34:12.601Z,8.90
2023-01-02T01:37:34.271Z,9.10
2023-01-02T01:40:57.219Z,9.40
2023-01-02T01:44:37.504Z,9.60
2023-01-02T01:48:00.330Z,9.60
2023-01-02T01:51:22.421Z,9.50
2023-01-02T01:54:45.828Z,9.40
2023-01-02T01:58:09.607Z,9.20
2023-01-02T02:01:31.667Z,9.10
2023-01-02T02:04:53.851Z,9.10
2023-01-02T02:08:16.486Z,9.00
2023-01-02T02:11:38.308Z,9.10
2023-01-02T02:15:01.292Z,9.10
2023-01-02T02:18:30.049Z,9.10
2023-01-02T02:22:07.175Z,9.00
2023-01-02T02:25:36.585Z,9.20
2023-01-02T02:29:18.980Z,9.40
2023-01-02T02:32:50.633Z,9.60
2023-01-02T02:36:16.676Z,9.80
2023-01-02T02:39:39.994Z,9.80
2023-01-02T02:43:05.487Z,9.70
2023-01-02T02:46:31.004Z,9.60
2023-01-02T02:49:56.567Z,9.40
2023-01-02T02:53:20.348Z,9.40
2023-01-02T02:56:42.904Z,9.40
2023-01-02T03:00:05.652Z,9.50
2023-01-02T03:03:27.249Z,9.60
2023-01-02T03:07:01.240Z,9.80
2023-01-02T03:10:28.043Z,9.90
2023-01-02T03:13:55.069Z,9.90
2023-01-02T03:17:19.055Z,9.80
2023-01-02T03:20:41.965Z,9.80
2023-01-02T03:24:06.821Z,9.60
2023-01-02T03:27:30.872Z,9.40
2023-01-02T03:30:55.236Z,9.20
2023-01-02T03:34:20.212Z,9.20
2023-01-02T03:37:45.401Z,9.20
2023-01-02T03:41:09.871Z,9.10
2023-01-02T03:44:36.156Z,9.00
2023-01-02T03:48:00.963Z,9.00
2023-01-02T03:51:22.582Z,8.90
2023-01-02T03:54:44.379Z,8.80
2023-01-02T03:58:11.287Z,8.70
2023-01-02T04:01:37.080Z,8.70
2023-01-02T04:04:59.758Z,8.60
2023-01-02T04:08:24.077Z,8.60
2023-01-02T04:11:47.748Z,8.50
2023-01-02T04:15:11.872Z,8.50
2023-01-02T04:18:35.562Z,8.60
2023-01-02T04:21:58.607Z,8.60
2023-01-02T04:25:20.438Z,8.60
2023-01-02T04:28:42.331Z,8.60
2023-01-02T04:32:09.759Z,8.70
2023-01-02T04:35:31.640Z,8.90
2023-01-02T04:38:53.275Z,8.80
2023-01-02T04:42:14.814Z,8.80
2023-01-02T04:45:36.386Z,8.70
2023-01-02T04:48:59.318Z,8.60
2023-01-02T04:52:20.862Z,8.50
2023-01-02T04:55:42.443Z,8.40
2023-01-02T04:59:04.050Z,8.50
2023-01-02T05:02:25.709Z,8.50
2023-01-02T05:05:48.705Z,8.50
2023-01-02T05:09:10.406Z,8.50
2023-01-02T05:12:33.204Z,8.50
2023-01-02T05:15:55.119Z,8.40
2023-01-02T05:19:16.693Z,8.40
2023-01-02T05:22:39.818Z,8.50
2023-01-02T05:26:01.372Z,8.50
2023-01-02T05:29:22.927Z,8.70
2023-01-02T05:32:44.483Z,8.80
2023-01-02T05:36:06.593Z,8.90
2023-01-02T05:39:29.483Z,9.00
2023-01-02T05:42:51.041Z,9.30
2023-01-02T05:46:13.535Z,9.30
2023-01-02T05:49:35.106Z,9.40
2023-01-02T05:52:56.664Z,9.50
2023-01-02T05:56:19.600Z,9.50
2023-01-02T05:59:41.144Z,9.50
2023-01-02T06:03:02.778Z,9.50
2023-01-02T06:06:25.316Z,9.50
2023-01-02T06:09:46.864Z,9.40
2023-01-02T06:13:09.769Z,9.40
2023-01-02T06:16:31.396Z,9.50
2023-01-02T06:19:54.232Z,9.50
2023-01-02T06:23:15.995Z,9.50
2023-01-02T06:26:37.558Z,9.50
2023-01-02T06:30:00.474Z,9.50
2023-01-02T06:33:22.034Z,9.40
2023-01-02T06:36:43.572Z,9.30
2023-01-02T06:40:05.803Z,9.10
2023-01-02T06:43:27.950Z,9.00
2023-01-02T06:46:50.826Z,8.90
2023-01-02T06:50:12.527Z,8.70
2023-01-02T06:53:34.601Z,8.50
2023-01-02T06:56:56.139Z,8.30
2023-01-02T07:00:17.874Z,8.10
2023-01-02T07:03:40.778Z,7.90
2023-01-02T07:07:02.338Z,7.70
2023-01-02T07:10:23.894Z,7.70
2023-01-02T07:13:45.919Z,7.60
2023-01-02T07:17:07.507Z,7.50
2023-01-02T07:20:30.420Z,7.60
2023-01-02T07:23:52.013Z,7.70
2023-01-02T07:27:13.590Z,8.10
2023-01-02T07:30:35.147Z,8.50
2023-01-02T07:33:57.866Z,8.90
2023-01-02T07:37:20.790Z,9.30
2023-01-02T07:40:42.314Z,9.60
2023-01-02T07:44:04.037Z,9.80
2023-01-02T07:47:25.596Z,10.10
2023-01-02T07:50:47.138Z,10.30
2023-01-02T07:54:10.077Z,10.50
2023-01-02T07:57:31.632Z,10.60
2023-01-02T08:00:53.502Z,10.70
2023-01-02T08:04:15.100Z,10.70
2023-01-02T08:07:40.958Z,10.80
2023-01-02T08:11:08.258Z,10.80
2023-01-02T08:14:29.807Z,10.80
2023-01-02T08:17:51.602Z,10.60
2023-01-02T08:21:13.316Z,10.40
2023-01-02T08:24:34.867Z,10.10
2023-01-02T08:27:57.756Z,9.90
2023-01-02T08:31:21.137Z,9.80
2023-01-02T08:34:42.744Z,9.80
2023-01-02T08:38:04.284Z,9.80
2023-01-02T08:41:32.080Z,10.00
2023-01-02T08:44:54.977Z,10.10
2023-01-02T08:48:20.840Z,10.10
2023-01-02T08:51:43.167Z,10.20
2023-01-02T08:55:05.131Z,10.40
2023-01-02T08:58:26.731Z,10.60
2023-01-02T09:01:50.125Z,10.70
2023-01-02T09:05:11.788Z,11.00
2023-01-02T09:08:33.426Z,11.40
2023-01-02T09:11:54.983Z,11.80
2023-01-02T09:15:16.599Z,12.10
2023-01-02T09:18:39.807Z,12.40
2023-01-02T09:22:01.580Z,12.40
2023-01-02T09:25:24.556Z,12.50
2023-01-02T09:28:46.300Z,12.50
2023-01-02T09:32:07.875Z,12.60
2023-01-02T09:35:30.762Z,12.60
2023-01-02T09:38:52.768Z,12.80
2023-01-02T09:42:15.795Z,12.90
2023-01-02T09:45:40.375Z,13.00
2023-01-02T09:49:02.428Z,13.20
2023-01-02T09:52:26.791Z,13.30
2023-01-02T09:55:53.354Z,13.30
2023-01-02T09:59:17.258Z,13.40
2023-01-02T10:02:46.580Z,13.60
2023-01-02T10:06:10.261Z,13.70
2023-01-02T10:09:36.006Z,13.80
2023-01-02T10:13:01.134Z,13.80
2023-01-02T10:16:25.573Z,13.80
2023-01-02T10:19:50.604Z,13.70
2023-01-02T10:23:15.264Z,13.70
2023-01-02T10:26:41.428Z,13.80
2023-01-02T10:30:05.910Z,13.80
2023-01-02T10:33:30.242Z,13.80
2023-01-02T10:36:52.937Z,13.80
2023-01-02T10:40:14.934Z,13.80
2023-01-02T10:43:38.846Z,13.70
2023-01-02T10:47:10.251Z,13.80
2023-01-02T10:50:36.132Z,13.90
2023-01-02T10:54:01.776Z,13.90
2023-01-02T10:57:25.419Z,13.90
2023-01-02T11:00:48.735Z,13.80
2023-01-02T11:04:11.504Z,13.90
2023-01-02T11:07:34.888Z,13.70
2023-01-02T11:10:56.457Z,13.60
2023-01-02T11:14:21.157Z,13.60
2023-01-02T11:17:44.245Z,13.70
2023-01-02T11:21:07.145Z,13.70
2023-01-02T11:24:28.732Z,13.70
2023-01-02T11:27:50.516Z,13.70
2023-01-02T11:31:14.118Z,13.70
2023-01-02T11:34:38.356Z,13.80
2023-01-02T11:38:01.117Z,13.80
2023-01-02T11:41:27.144Z,13.80
2023-01-02T11:44:52.695Z,13.90
2023-01-02T11:48:18.128Z,14.10
2023-01-02T11:51:41.334Z,14.30
2023-01-02T11:55:08.009Z,14.50
2023-01-02T11:58:34.464Z,14.70
2023-01-02T12:02:00.133Z,14.80
2023-01-02T12:05:24.539Z,14.80
2023-01-02T12:08:52.153Z,14.80
2023-01-02T12:12:22.098Z,14.90
2023-01-02T12:15:51.452Z,14.90
2023-01-02T12:19:20.003Z,15.00
2023-01-02T12:22:50.555Z,15.10
2023-01-02T12:26:15.253Z,15.20
2023-01-02T12:29:48.282Z,15.30
2023-01-02T12:33:23.906Z,15.40
2023-01-02T12:36:54.312Z,15.40
2023-01-02T12:40:22.496Z,15.50
2023-01-02T12:44:00.790Z,15.70
2023-01-02T12:47:38.342Z,16.00
2023-01-02T12:51:10.418Z,16.00
2023-01-02T12:54:40.062Z,15.90
2023-01-02T12:58:02.977Z,15.70
2023-01-02T13:01:28.386Z,15.70
2023-01-02T13:04:51.507Z,15.60
2023-01-02T13:08:17.335Z,15.50
2023-01-02T13:11:42.753Z,15.50
2023-01-02T13:15:08.467Z,15.40
2023-01-02T13:18:35.238Z,15.30
2023-01-02T13:21:59.543Z,15.30
2023-01-02T13:25:23.061Z,15.30
2023-01-02T13:28:52.527Z,15.30
2023-01-02T13:32:14.766Z,15.30
2023-01-02T13:35:39.331Z,15.30
2023-01-02T13:39:05.521Z,15.30
2023-01-02T13:42:30.215Z,15.30
2023-01-02T13:45:53.048Z,15.30
2023-01-02T13:49:18.191Z,15.20
2023-01-02T13:52:41.244Z,15.20
2023-01-02T13:56:05.356Z,15.20
2023-01-02T13:59:41.228Z,15.20
2023-01-02T14:03:17.738Z,15.10
2023-01-02T14:06:40.069Z,15.10
2023-01-02T14:10:02.934Z,15.00
2023-01-02T14:13:27.715Z,14.90
2023-01-02T14:16:55.380Z,14.90
2023-01-02T14:20:21.408Z,14.90
2023-01-02T14:24:16.968Z,14.90
2023-01-02T14:27:26.835Z,14.80
2023-01-02T14:30:49.470Z,14.80
2023-01-02T14:34:12.415Z,14.70
2023-01-02T14:37:38.838Z,14.60
2023-01-02T14:41:00.429Z,14.60
2023-01-02T14:44:22.406Z,14.50
2023-01-02T14:47:45.792Z,14.40
2023-01-02T14:51:09.105Z,14.30
2023-01-02T14:54:36.651Z,14.20
2023-01-02T14:57:59.408Z,14.20
2023-01-02T15:01:42.414Z,14.10
2023-01-02T15:05:07.733Z,14.00
2023-01-02T15:08:39.700Z,14.00
2023-01-02T15:12:03.178Z,13.90
2023-01-02T15:15:26.251Z,13.80
2023-01-02T15:18:49.840Z,13.80
2023-01-02T15:22:12.421Z,13.80
2023-01-02T15:25:35.821Z,13.70
2023-01-02T15:29:00.337Z,13.70
2023-01-02T15:32:22.804Z,13.70
2023-01-02T15:35:44.578Z,13.60
2023-01-02T15:39:08.069Z,13.50
2023-01-02T15:42:30.151Z,13.40
2023-01-02T15:45:53.289Z,13.40
2023-01-02T15:49:15.264Z,13.30
2023-01-02T15:52:36.824Z,13.20
2023-01-02T15:55:58.669Z,13.20
2023-01-02T15:59:24.430Z,13.00
2023-01-02T16:02:47.500Z,13.10
2023-01-02T16:06:13.345Z,13.10
2023-01-02T16:09:34.902Z,13.10
2023-01-02T16:12:57.964Z,13.10
2023-01-02T16:16:20.229Z,13.10
2023-01-02T16:19:48.104Z,13.00
2023-01-02T16:23:15.859Z,12.90
2023-01-02T16:26:39.586Z,12.90
2023-01-02T16:30:13.732Z,12.80
2023-01-02T16:33:35.295Z,12.80
2023-01-02T16:37:23.949Z,12.70
2023-01-02T16:41:00.717Z,12.60
2023-01-02T16:44:24.027Z,12.60
2023-01-02T16:47:45.719Z,12.60
2023-01-02T16:51:07.454Z,12.50
2023-01-02T16:54:29.006Z,12.50
2023-01-02T16:57:51.885Z,12.40
2023-01-02T17:01:14.690Z,12.40
2023-01-02T17:04:36.370Z,12.30
2023-01-02T17:07:57.903Z,12.20
2023-01-02T17:11:20.535Z,12.20
2023-01-02T17:14:43.459Z,12.20
2023-01-02T17:18:05.086Z,12.20
2023-01-02T17:21:32.524Z,12.10
2023-01-02T17:24:54.555Z,12.10
2023-01-02T17:28:16.140Z,12.10
2023-01-02T17:31:39.084Z,12.10
2023-01-02T17:35:00.676Z,12.10
2023-01-02T17:38:22.226Z,12.10
2023-01-02T17:41:43.780Z,12.10
2023-01-02T17:45:05.873Z,12.00
2023-01-02T17:48:29.900Z,12.00
2023-01-02T17:51:51.744Z,12.00
2023-01-02T17:55:13.342Z,11.90
2023-01-02T17:58:34.894Z,11.80
2023-01-02T18:01:58.618Z,11.80
2023-01-02T18:05:22.177Z,11.70
2023-01-02T18:08:43.841Z,11.70
2023-01-02T18:12:05.642Z,11.60
2023-01-02T18:15:27.169Z,11.60
2023-01-02T18:18:49.460Z,11.50
2023-01-02T18:22:13.642Z,11.50
2023-01-02T18:25:35.214Z,11.50
2023-01-02T18:29:00.369Z,11.50
2023-01-02T18:32:30.614Z,11.40
2023-01-02T18:35:58.454Z,11.30
2023-01-02T18:39:24.856Z,11.30
2023-01-02T18:42:46.742Z,11.20
2023-01-02T18:46:13.631Z,11.20
2023-01-02T18:49:39.889Z,11.20
2023-01-02T18:53:11.216Z,11.20
2023-01-02T18:56:34.855Z,11.10
2023-01-02T18:59:58.355Z,10.90
2023-01-02T19:03:26.494Z,10.80
2023-01-02T19:06:49.103Z,10.70
2023-01-02T19:10:18.344Z,10.60
2023-01-02T19:13:41.237Z,10.50
2023-01-02T19:17:08.877Z,10.40
2023-01-02T19:20:30.469Z,10.30
2023-01-02T19:23:54.645Z,10.30
2023-01-02T19:27:21.455Z,10.20
2023-01-02T19:30:44.547Z,10.20
2023-01-02T19:34:16.846Z,10.10
2023-01-02T19:37:39.543Z,10.10
2023-01-02T19:41:01.241Z,10.10
2023-01-02T19:44:22.806Z,10.10
2023-01-02T19:47:45.916Z,10.10
2023-01-02T19:51:07.475Z,10.10
2023-01-02T19:54:29.044Z,10.10
2023-01-02T19:57:50.629Z,10.00
2023-01-02T20:01:12.234Z,10.10
2023-01-02T20:04:35.170Z,10.10
2023-01-02T20:07:56.806Z,10.10
2023-01-02T20:11:18.409Z,10.10
2023-01-02T20:14:40.061Z,10.10
2023-01-02T20:18:06.564Z,10.10
2023-01-02T20:21:31.478Z,10.10
2023-01-02T20:24:53.089Z,10.10
2023-01-02T20:28:14.719Z,10.10
2023-01-02T20:31:36.325Z,10.10
2023-01-02T20:34:57.967Z,10.10
2023-01-02T20:38:20.882Z,10.20
2023-01-02T20:41:42.536Z,10.00
2023-01-02T20:45:04.785Z,9.90
2023-01-02T20:48:26.343Z,9.90
2023-01-02T20:51:47.898Z,9.90
2023-01-02T20:55:11.039Z,9.90
2023-01-02T20:58:34.754Z,9.80
2023-01-02T21:01:56.542Z,9.80
2023-01-02T21:05:18.235Z,9.70
2023-01-02T21:08:39.801Z,9.70
2023-01-02T21:12:03.078Z,9.70
2023-01-02T21:15:24.710Z,9.60
2023-01-02T21:18:46.263Z,9.60
2023-01-02T21:22:07.816Z,9.60
2023-01-02T21:25:29.409Z,9.50
2023-01-02T21:28:52.369Z,9.60
2023-01-02T21:32:13.962Z,9.50
2023-01-02T21:35:35.599Z,9.50
2023-01-02T21:38:57.178Z,9.40
2023-01-02T21:42:18.752Z,9.40
2023-01-02T21:45:41.712Z,9.40
2023-01-02T21:49:03.306Z,9.30
2023-01-02T21:52:24.976Z,9.40
2023-01-02T21:55:46.525Z,9.40
2023-01-02T21:59:08.083Z,9.40
2023-01-02T22:02:38.241Z,9.30
2023-01-02T22:06:00.285Z,9.40
2023-01-02T22:09:22.202Z,9.20
2023-01-02T22:12:43.814Z,9.20
2023-01-02T22:16:05.687Z,9.20
2023-01-02T22:19:29.268Z,9.20
2023-01-02T22:22:50.862Z,9.10
2023-01-02T22:26:13.355Z,9.20
2023-01-02T22:30:09.507Z,9.10
2023-01-02T22:33:16.999Z,9.10
2023-01-02T22:36:39.927Z,9.10
2023-01-02T22:40:01.519Z,9.00
2023-01-02T22:43:24.799Z,9.00
2023-01-02T22:46:48.294Z,8.90
2023-01-02T22:50:12.467Z,8.90
2023-01-02T22:53:36.213Z,8.90
2023-01-02T22:56:57.779Z,8.80
2023-01-02T23:00:20.071Z,8.80
2023-01-02T23:03:42.425Z,8.90
2023-01-02T23:10:46.962Z,8.90
2023-01-02T23:14:09.338Z,8.90
2023-01-02T23:17:31.300Z,8.90
2023-01-02T23:20:54.234Z,8.90
2023-01-02T23:24:17.713Z,8.80
2023-01-02T23:27:40.655Z,8.70
2023-01-02T23:31:02.580Z,8.70
2023-01-02T23:34:24.975Z,8.60
2023-01-02T23:37:46.589Z,8.60
2023-01-02T23:41:08.145Z,8.60
2023-01-02T23:44:31.064Z,8.60
2023-01-02T23:47:53.042Z,8.60
2023-01-02T23:51:14.724Z,8.60
2023-01-02T23:54:36.710Z,8.60
2023-01-02T23:57:58.489Z,8.60
